createdAt,value
2018-03-25T00:00:06.017Z,13.15
2018-03-25T00:02:34.310Z,14.25
2018-03-25T00:05:06.347Z,14.10
2018-03-25T00:07:34.682Z,13.80
2018-03-25T00:10:05.749Z,14.15
2018-03-25T00:12:34.063Z,14.73
2018-03-25T00:15:06.082Z,13.10
2018-03-25T00:17:34.396Z,13.77
2018-03-25T00:20:05.918Z,13.02
2018-03-25T00:22:34.218Z,13.32
2018-03-25T00:25:06.108Z,13.15
2018-03-25T00:27:34.397Z,13.25
2018-03-25T00:30:06.003Z,13.18
2018-03-25T00:32:34.486Z,13.00
2018-03-25T00:35:05.705Z,13.07
2018-03-25T00:37:34.009Z,12.93
2018-03-25T00:40:06.089Z,12.88
2018-03-25T00:42:34.384Z,12.82
2018-03-25T00:45:06.007Z,13.07
2018-03-25T00:47:34.962Z,13.48
2018-03-25T00:50:05.737Z,13.88
2018-03-25T00:52:34.040Z,13.60
2018-03-25T00:55:05.630Z,13.32
2018-03-25T00:57:33.911Z,12.80
2018-03-25T01:00:05.450Z,12.20
2018-03-25T01:02:33.736Z,13.62
2018-03-25T01:05:05.185Z,13.05
2018-03-25T01:07:33.524Z,13.20
2018-03-25T01:10:05.616Z,13.62
2018-03-25T01:12:33.894Z,12.30
2018-03-25T01:15:05.141Z,13.23
2018-03-25T01:17:33.441Z,14.23
2018-03-25T01:20:08.270Z,12.98
2018-03-25T01:22:36.689Z,13.85
2018-03-25T01:25:05.957Z,13.10
2018-03-25T01:27:34.296Z,13.38
2018-03-25T01:30:05.644Z,12.20
2018-03-25T01:32:33.952Z,13.32
2018-03-25T01:35:05.315Z,14.10
2018-03-25T01:37:33.604Z,13.48
2018-03-25T01:40:05.126Z,14.32
2018-03-25T01:42:33.419Z,14.18
2018-03-25T01:45:08.193Z,13.07
2018-03-25T01:47:36.468Z,13.02
2018-03-25T01:50:07.121Z,13.32
2018-03-25T01:52:35.414Z,13.52
2018-03-25T01:55:07.250Z,12.63
2018-03-25T01:57:35.576Z,13.15
2018-03-25T02:00:06.789Z,12.95
2018-03-25T02:02:35.273Z,13.40
2018-03-25T02:05:07.299Z,12.70
2018-03-25T02:07:35.588Z,13.15
2018-03-25T02:10:07.793Z,12.48
2018-03-25T02:12:36.079Z,13.43
2018-03-25T02:15:06.094Z,13.23
2018-03-25T02:17:34.581Z,12.98
2018-03-25T02:20:06.734Z,13.30
2018-03-25T02:22:35.021Z,14.32
2018-03-25T02:25:06.645Z,13.62
2018-03-25T02:27:34.922Z,13.50
2018-03-25T02:30:06.085Z,13.25
2018-03-25T02:32:34.370Z,13.52
2018-03-25T02:35:05.760Z,12.55
2018-03-25T02:37:34.560Z,13.45
2018-03-25T02:40:05.938Z,13.65
2018-03-25T02:42:34.215Z,13.68
2018-03-25T02:45:06.148Z,12.57
2018-03-25T02:47:34.401Z,14.50
2018-03-25T02:50:08.380Z,12.77
2018-03-25T02:52:36.700Z,13.30
2018-03-25T02:55:06.795Z,13.15
2018-03-25T02:57:35.072Z,12.82
2018-03-25T03:00:06.978Z,12.80
2018-03-25T03:02:35.275Z,13.23
2018-03-25T03:05:07.382Z,13.88
2018-03-25T03:07:35.692Z,13.20
2018-03-25T03:10:07.881Z,13.32
2018-03-25T03:12:36.164Z,13.40
2018-03-25T03:15:07.351Z,13.52
2018-03-25T03:17:35.690Z,13.62
2018-03-25T03:20:07.278Z,13.32
2018-03-25T03:22:35.617Z,13.62
2018-03-25T03:25:07.571Z,13.32
2018-03-25T03:27:36.362Z,13.48
2018-03-25T03:30:06.164Z,13.85
2018-03-25T03:32:34.512Z,14.57
2018-03-25T03:35:06.132Z,13.50
2018-03-25T03:37:34.822Z,14.43
2018-03-25T03:40:06.790Z,13.55
2018-03-25T03:42:35.077Z,13.77
2018-03-25T03:45:06.695Z,14.20
2018-03-25T03:47:34.994Z,14.20
2018-03-25T03:50:06.041Z,14.10
2018-03-25T03:52:34.340Z,14.93
2018-03-25T03:55:05.764Z,13.88
2018-03-25T03:57:34.097Z,14.00
2018-03-25T04:00:09.291Z,14.52
2018-03-25T04:02:37.672Z,14.55
2018-03-25T04:05:07.643Z,13.75
2018-03-25T04:07:35.956Z,13.50
2018-03-25T04:10:06.380Z,13.75
2018-03-25T04:12:34.653Z,14.05
2018-03-25T04:15:06.556Z,13.68
2018-03-25T04:17:34.833Z,13.30
2018-03-25T04:20:08.802Z,13.73
2018-03-25T04:22:37.085Z,12.75
2018-03-25T04:25:06.757Z,13.40
2018-03-25T04:27:35.043Z,13.23
2018-03-25T04:30:06.672Z,14.32
2018-03-25T04:32:34.950Z,13.32
2018-03-25T04:35:05.760Z,13.55
2018-03-25T04:37:34.100Z,13.60
2018-03-25T04:40:06.077Z,14.35
2018-03-25T04:42:34.351Z,14.20
2018-03-25T04:45:08.421Z,13.85
2018-03-25T04:47:36.693Z,13.88
2018-03-25T04:50:06.636Z,14.68
2018-03-25T04:52:34.927Z,13.55
2018-03-25T04:55:05.775Z,13.93
2018-03-25T04:57:34.037Z,13.27
2018-03-25T05:00:07.263Z,13.18
2018-03-25T05:02:35.542Z,13.25
2018-03-25T05:05:06.907Z,13.30
2018-03-25T05:07:35.225Z,14.60
2018-03-25T05:10:06.934Z,13.15
2018-03-25T05:12:36.439Z,13.75
2018-03-25T05:15:06.635Z,12.73
2018-03-25T05:17:35.146Z,12.65
2018-03-25T05:20:07.173Z,13.98
2018-03-25T05:22:35.484Z,13.35
2018-03-25T05:25:07.390Z,13.90
2018-03-25T05:27:35.716Z,13.68
2018-03-25T05:30:07.147Z,14.43
2018-03-25T05:32:35.454Z,14.30
2018-03-25T05:35:07.294Z,13.18
2018-03-25T05:37:36.235Z,13.43
2018-03-25T05:40:05.883Z,14.27
2018-03-25T05:42:34.845Z,13.80
2018-03-25T05:45:05.851Z,13.50
2018-03-25T05:47:34.892Z,14.00
2018-03-25T05:50:06.129Z,13.80
2018-03-25T05:52:34.658Z,14.18
2018-03-25T05:55:06.841Z,14.13
2018-03-25T05:57:35.124Z,14.63
2018-03-25T06:00:06.746Z,13.73
2018-03-25T06:02:35.059Z,14.07
2018-03-25T06:05:06.649Z,13.70
2018-03-25T06:07:35.037Z,14.05
2018-03-25T06:10:06.493Z,14.70
2018-03-25T06:12:34.782Z,15.52
2018-03-25T06:15:06.613Z,13.48
2018-03-25T06:17:35.596Z,13.75
2018-03-25T06:20:07.127Z,13.38
2018-03-25T06:22:35.677Z,13.55
2018-03-25T06:25:05.901Z,14.02
2018-03-25T06:27:34.195Z,14.13
2018-03-25T06:30:07.093Z,14.25
2018-03-25T06:32:35.388Z,12.63
2018-03-25T06:35:07.179Z,12.57
2018-03-25T06:37:35.683Z,13.63
2018-03-25T06:40:07.738Z,14.00
2018-03-25T06:42:36.058Z,14.53
2018-03-25T06:45:07.773Z,13.03
2018-03-25T06:47:36.067Z,14.43
2018-03-25T06:50:08.063Z,13.80
2018-03-25T06:52:36.381Z,12.67
2018-03-25T06:55:07.635Z,13.00
2018-03-25T06:57:36.105Z,13.43
2018-03-25T07:00:06.227Z,12.50
2018-03-25T07:02:34.525Z,13.03
2018-03-25T07:05:06.644Z,13.57
2018-03-25T07:07:35.097Z,14.03
2018-03-25T07:10:07.203Z,14.10
2018-03-25T07:12:35.553Z,13.93
2018-03-25T07:15:07.333Z,13.60
2018-03-25T07:17:35.634Z,13.33
2018-03-25T07:20:07.472Z,13.23
2018-03-25T07:22:35.778Z,12.37
2018-03-25T07:25:07.290Z,13.30
2018-03-25T07:27:35.596Z,13.63
2018-03-25T07:30:07.158Z,13.47
2018-03-25T07:32:35.470Z,13.10
2018-03-25T07:35:07.005Z,13.47
2018-03-25T07:37:35.302Z,13.57
2018-03-25T07:40:07.209Z,13.20
2018-03-25T07:42:35.556Z,13.03
2018-03-25T07:45:07.616Z,13.13
2018-03-25T07:47:35.896Z,12.97
2018-03-25T07:50:05.982Z,12.70
2018-03-25T07:52:34.309Z,12.87
2018-03-25T07:55:09.368Z,13.13
2018-03-25T07:57:37.681Z,12.93
2018-03-25T08:00:06.012Z,13.50
2018-03-25T08:02:34.292Z,12.67
2018-03-25T08:05:09.316Z,13.33
2018-03-25T08:07:37.594Z,13.60
2018-03-25T08:10:10.213Z,14.03
2018-03-25T08:12:38.503Z,12.77
2018-03-25T08:15:07.054Z,13.00
2018-03-25T08:17:35.661Z,12.57
2018-03-25T08:20:07.778Z,12.83
2018-03-25T08:22:36.075Z,12.80
2018-03-25T08:25:06.038Z,13.13
2018-03-25T08:27:34.352Z,13.67
2018-03-25T08:30:06.390Z,13.07
2018-03-25T08:32:35.302Z,14.17
2018-03-25T08:35:07.140Z,14.23
2018-03-25T08:37:35.524Z,14.10
2018-03-25T08:40:07.666Z,13.93
2018-03-25T08:42:36.466Z,14.40
2018-03-25T08:45:07.808Z,12.83
2018-03-25T08:47:36.869Z,13.83
2018-03-25T08:50:06.620Z,13.07
2018-03-25T08:52:35.065Z,13.70
2018-03-25T08:55:07.093Z,13.43
2018-03-25T08:57:35.386Z,14.40
2018-03-25T09:00:06.999Z,13.77
2018-03-25T09:02:35.323Z,26.37
2018-03-25T09:05:07.265Z,15.37
2018-03-25T09:07:35.922Z,13.77
2018-03-25T09:10:07.785Z,13.87
2018-03-25T09:12:36.225Z,14.00
2018-03-25T09:15:07.468Z,13.17
2018-03-25T09:17:35.780Z,14.10
2018-03-25T09:20:08.022Z,13.47
2018-03-25T09:22:36.455Z,14.20
2018-03-25T09:25:06.665Z,14.97
2018-03-25T09:27:35.454Z,13.43
2018-03-25T09:30:07.492Z,14.07
2018-03-25T09:32:35.825Z,14.33
2018-03-25T09:35:07.383Z,14.60
2018-03-25T09:37:36.211Z,13.60
2018-03-25T09:40:07.755Z,14.07
2018-03-25T09:42:36.237Z,13.93
2018-03-25T09:45:07.869Z,15.43
2018-03-25T09:47:36.180Z,14.87
2018-03-25T09:50:07.495Z,15.97
2018-03-25T09:52:35.802Z,15.10
2018-03-25T09:55:08.041Z,15.00
2018-03-25T09:57:36.348Z,15.13
2018-03-25T10:00:10.485Z,16.33
2018-03-25T10:02:43.009Z,16.20
2018-03-25T10:05:15.097Z,16.30
2018-03-25T10:07:43.406Z,16.20
2018-03-25T10:10:11.838Z,15.60
2018-03-25T10:12:40.113Z,16.20
2018-03-25T10:15:08.445Z,16.03
2018-03-25T10:17:36.725Z,15.67
2018-03-25T10:20:06.486Z,16.33
2018-03-25T10:22:34.793Z,15.33
2018-03-25T10:25:06.363Z,16.17
2018-03-25T10:27:34.651Z,15.20
2018-03-25T10:30:08.626Z,15.80
2018-03-25T10:32:36.905Z,16.80
2018-03-25T10:35:10.521Z,17.00
2018-03-25T10:37:38.953Z,16.27
2018-03-25T10:40:07.582Z,16.90
2018-03-25T10:42:35.934Z,17.13
2018-03-25T10:45:07.204Z,17.77
2018-03-25T10:47:36.514Z,17.60
2018-03-25T10:50:07.958Z,16.83
2018-03-25T10:52:40.176Z,17.73
2018-03-25T10:55:08.613Z,17.70
2018-03-25T10:57:37.283Z,18.43
2018-03-25T11:00:06.466Z,18.10
2018-03-25T11:02:34.965Z,17.03
2018-03-25T11:05:06.797Z,17.13
2018-03-25T11:07:35.408Z,17.83
2018-03-25T11:10:07.513Z,16.17
2018-03-25T11:12:35.828Z,18.00
2018-03-25T11:15:07.157Z,17.40
2018-03-25T11:17:35.673Z,16.67
2018-03-25T11:20:07.678Z,17.17
2018-03-25T11:22:35.981Z,16.73
2018-03-25T11:25:07.213Z,16.40
2018-03-25T11:27:35.742Z,16.07
2018-03-25T11:30:07.168Z,16.70
2018-03-25T11:32:36.117Z,17.33
2018-03-25T11:35:09.247Z,17.60
2018-03-25T11:37:37.540Z,17.53
2018-03-25T11:40:06.154Z,16.10
2018-03-25T11:42:34.572Z,16.87
2018-03-25T11:45:09.750Z,16.23
2018-03-25T11:47:38.064Z,15.70
2018-03-25T11:50:06.815Z,16.30
2018-03-25T11:52:35.086Z,15.60
2018-03-25T11:55:06.417Z,16.40
2018-03-25T11:57:34.880Z,16.10
2018-03-25T12:00:06.442Z,15.87
2018-03-25T12:02:34.845Z,16.33
2018-03-25T12:05:08.804Z,17.03
2018-03-25T12:07:37.098Z,17.13
2018-03-25T12:10:06.951Z,16.10
2018-03-25T12:12:35.606Z,16.27
2018-03-25T12:15:07.733Z,15.40
2018-03-25T12:17:36.257Z,16.23
2018-03-25T12:20:06.193Z,16.03
2018-03-25T12:22:34.475Z,15.47
2018-03-25T12:25:09.765Z,16.40
2018-03-25T12:27:38.061Z,16.03
2018-03-25T12:30:06.617Z,16.50
2018-03-25T12:32:34.862Z,35.80
2018-03-25T12:35:07.142Z,19.70
2018-03-25T12:37:39.105Z,40.33
2018-03-25T12:40:07.432Z,40.03
2018-03-25T12:42:36.156Z,26.43
2018-03-25T12:45:08.307Z,16.37
2018-03-25T12:47:36.586Z,20.53
2018-03-25T12:50:08.749Z,15.40
2018-03-25T12:52:37.084Z,16.70
2018-03-25T12:55:07.182Z,20.00
2018-03-25T12:57:35.636Z,20.57
2018-03-25T13:00:06.874Z,17.83
2018-03-25T13:02:35.486Z,15.77
2018-03-25T13:05:07.039Z,14.83
2018-03-25T13:07:35.556Z,19.10
2018-03-25T13:10:06.289Z,15.63
2018-03-25T13:12:34.569Z,15.57
2018-03-25T13:15:06.290Z,14.43
2018-03-25T13:17:34.638Z,16.07
2018-03-25T13:20:06.201Z,17.07
2018-03-25T13:22:35.186Z,15.23
2018-03-25T13:25:07.250Z,15.17
2018-03-25T13:27:35.544Z,17.43
2018-03-25T13:30:07.784Z,17.47
2018-03-25T13:32:36.094Z,16.97
2018-03-25T13:35:07.418Z,17.63
2018-03-25T13:37:35.732Z,17.03
2018-03-25T13:40:08.066Z,17.10
2018-03-25T13:42:36.377Z,21.97
2018-03-25T13:45:06.214Z,17.63
2018-03-25T13:47:34.567Z,16.90
2018-03-25T13:50:06.134Z,16.17
2018-03-25T13:52:35.742Z,17.33
2018-03-25T13:55:07.277Z,16.73
2018-03-25T13:57:35.596Z,16.67
2018-03-25T14:00:07.376Z,16.27
2018-03-25T14:02:35.774Z,15.97
2018-03-25T14:05:07.782Z,16.07
2018-03-25T14:07:36.068Z,15.87
2018-03-25T14:10:07.492Z,17.00
2018-03-25T14:12:35.765Z,17.53
2018-03-25T14:15:07.171Z,17.53
2018-03-25T14:17:35.463Z,17.43
2018-03-25T14:20:06.325Z,17.53
2018-03-25T14:22:34.608Z,16.53
2018-03-25T14:25:06.224Z,17.27
2018-03-25T14:27:34.523Z,16.97
2018-03-25T14:30:08.546Z,16.03
2018-03-25T14:32:37.297Z,17.37
2018-03-25T14:35:06.740Z,16.93
2018-03-25T14:37:35.045Z,16.50
2018-03-25T14:40:06.392Z,16.80
2018-03-25T14:42:34.682Z,17.17
2018-03-25T14:45:06.254Z,17.27
2018-03-25T14:47:34.923Z,16.67
2018-03-25T14:50:08.878Z,16.13
2018-03-25T14:52:37.691Z,16.63
2018-03-25T14:55:06.641Z,16.63
2018-03-25T14:57:35.763Z,15.50
2018-03-25T15:00:07.220Z,15.80
2018-03-25T15:02:35.508Z,16.50
2018-03-25T15:05:07.369Z,16.77
2018-03-25T15:07:35.993Z,15.67
2018-03-25T15:10:07.980Z,14.93
2018-03-25T15:12:36.345Z,16.30
2018-03-25T15:15:09.464Z,15.97
2018-03-25T15:17:37.808Z,16.57
2018-03-25T15:20:06.793Z,29.53
2018-03-25T15:22:35.123Z,26.77
2018-03-25T15:25:07.142Z,19.00
2018-03-25T15:27:35.440Z,15.60
2018-03-25T15:30:06.387Z,15.90
2018-03-25T15:32:34.690Z,16.03
2018-03-25T15:35:09.854Z,16.77
2018-03-25T15:37:38.175Z,15.07
2018-03-25T15:40:06.465Z,15.53
2018-03-25T15:42:34.813Z,17.37
2018-03-25T15:45:06.468Z,15.63
2018-03-25T15:47:34.809Z,14.87
2018-03-25T15:50:06.941Z,15.90
2018-03-25T15:52:35.503Z,15.40
2018-03-25T15:55:06.768Z,16.50
2018-03-25T15:57:39.030Z,15.20
2018-03-25T16:00:07.365Z,15.03
2018-03-25T16:02:35.657Z,14.27
2018-03-25T16:05:06.409Z,14.63
2018-03-25T16:07:35.598Z,13.43
2018-03-25T16:10:07.293Z,23.67
2018-03-25T16:12:35.638Z,14.83
2018-03-25T16:15:07.892Z,14.03
2018-03-25T16:17:36.217Z,15.37
2018-03-25T16:20:07.267Z,13.57
2018-03-25T16:22:35.548Z,13.57
2018-03-25T16:25:07.230Z,13.70
2018-03-25T16:27:35.572Z,14.73
2018-03-25T16:30:07.680Z,15.60
2018-03-25T16:32:36.310Z,14.73
2018-03-25T16:35:06.155Z,16.27
2018-03-25T16:37:34.854Z,15.63
2018-03-25T16:40:06.120Z,16.13
2018-03-25T16:42:34.425Z,17.60
2018-03-25T16:45:05.988Z,16.90
2018-03-25T16:47:34.433Z,17.93
2018-03-25T16:50:06.460Z,16.43
2018-03-25T16:52:34.785Z,16.70
2018-03-25T16:55:06.295Z,16.40
2018-03-25T16:57:35.412Z,16.50
2018-03-25T17:00:06.893Z,16.80
2018-03-25T17:02:35.398Z,18.80
2018-03-25T17:05:07.408Z,16.10
2018-03-25T17:07:35.725Z,16.27
2018-03-25T17:10:07.049Z,17.77
2018-03-25T17:12:35.394Z,17.60
2018-03-25T17:15:06.970Z,17.50
2018-03-25T17:17:35.589Z,18.83
2018-03-25T17:20:07.337Z,18.77
2018-03-25T17:22:35.905Z,18.60
2018-03-25T17:25:07.980Z,17.73
2018-03-25T17:27:36.266Z,18.70
2018-03-25T17:30:07.893Z,19.43
2018-03-25T17:32:36.420Z,18.50
2018-03-25T17:35:06.540Z,19.73
2018-03-25T17:37:34.843Z,23.53
2018-03-25T17:40:08.837Z,19.17
2018-03-25T17:42:37.134Z,19.63
2018-03-25T17:45:06.680Z,18.80
2018-03-25T17:47:34.973Z,17.97
2018-03-25T17:50:06.279Z,19.37
2018-03-25T17:52:34.557Z,18.53
2018-03-25T17:55:06.493Z,28.13
2018-03-25T17:57:34.825Z,18.00
2018-03-25T18:00:06.750Z,18.77
2018-03-25T18:02:35.847Z,18.30
2018-03-25T18:05:07.294Z,17.30
2018-03-25T18:07:35.627Z,17.57
2018-03-25T18:10:07.688Z,16.90
2018-03-25T18:12:36.018Z,16.67
2018-03-25T18:15:07.264Z,29.93
2018-03-25T18:17:35.573Z,17.47
2018-03-25T18:20:07.697Z,17.43
2018-03-25T18:22:36.360Z,18.40
2018-03-25T18:25:06.391Z,18.67
2018-03-25T18:27:35.147Z,19.90
2018-03-25T18:30:06.642Z,18.07
2018-03-25T18:32:34.947Z,19.20
2018-03-25T18:35:06.375Z,20.07
2018-03-25T18:37:34.731Z,21.20
2018-03-25T18:40:06.703Z,21.53
2018-03-25T18:42:35.249Z,20.27
2018-03-25T18:45:06.910Z,19.97
2018-03-25T18:47:35.193Z,19.87
2018-03-25T18:50:06.739Z,20.67
2018-03-25T18:52:35.226Z,25.70
2018-03-25T18:55:06.750Z,20.43
2018-03-25T18:57:35.066Z,23.23
2018-03-25T19:00:06.757Z,22.07
2018-03-25T19:02:35.198Z,21.40
2018-03-25T19:05:06.336Z,20.73
2018-03-25T19:07:34.628Z,20.87
2018-03-25T19:10:06.169Z,20.40
2018-03-25T19:12:34.458Z,22.90
2018-03-25T19:15:06.578Z,20.67
2018-03-25T19:17:34.894Z,22.57
2018-03-25T19:20:07.248Z,21.67
2018-03-25T19:22:35.526Z,21.50
2018-03-25T19:25:06.335Z,20.97
2018-03-25T19:27:34.639Z,23.10
2018-03-25T19:30:06.129Z,23.77
2018-03-25T19:32:34.451Z,25.10
2018-03-25T19:35:06.366Z,23.10
2018-03-25T19:37:34.703Z,22.30
2018-03-25T19:40:09.912Z,23.40
2018-03-25T19:42:38.263Z,22.97
2018-03-25T19:45:06.551Z,23.50
2018-03-25T19:47:34.882Z,25.70
2018-03-25T19:50:06.439Z,24.23
2018-03-25T19:52:34.759Z,24.83
2018-03-25T19:55:06.114Z,23.70
2018-03-25T19:57:34.444Z,23.90
2018-03-25T20:00:09.501Z,25.97
2018-03-25T20:02:37.849Z,22.67
2018-03-25T20:05:06.346Z,23.80
2018-03-25T20:07:34.678Z,23.30
2018-03-25T20:10:06.540Z,26.03
2018-03-25T20:15:09.425Z,23.23
2018-03-25T20:17:37.811Z,24.27
2018-03-25T20:20:07.269Z,24.90
2018-03-25T20:22:35.558Z,24.13
2018-03-25T20:25:06.520Z,24.80
2018-03-25T20:27:35.012Z,25.50
2018-03-25T20:30:06.435Z,25.17
2018-03-25T20:32:34.734Z,24.17
2018-03-25T20:35:06.618Z,25.57
2018-03-25T20:37:34.939Z,25.70
2018-03-25T20:40:06.466Z,28.77
2018-03-25T20:42:34.865Z,28.20
2018-03-25T20:45:06.732Z,26.30
2018-03-25T20:47:35.053Z,26.97
2018-03-25T20:50:07.110Z,28.63
2018-03-25T20:52:35.628Z,27.70
2018-03-25T20:55:07.671Z,26.80
2018-03-25T20:57:35.903Z,26.83
2018-03-25T21:00:07.946Z,27.93
2018-03-25T21:02:36.271Z,24.30
2018-03-25T21:05:08.312Z,26.37
2018-03-25T21:07:36.706Z,25.87
2018-03-25T21:10:06.778Z,26.73
2018-03-25T21:12:35.102Z,25.10
2018-03-25T21:15:07.152Z,26.13
2018-03-25T21:17:35.437Z,26.07
2018-03-25T21:20:07.569Z,27.07
2018-03-25T21:22:35.889Z,28.83
2018-03-25T21:25:07.116Z,28.10
2018-03-25T21:27:36.293Z,29.20
2018-03-25T21:30:07.621Z,28.43
2018-03-25T21:32:35.933Z,37.30
2018-03-25T21:35:07.405Z,30.37
2018-03-25T21:37:35.912Z,28.27
2018-03-25T21:40:08.081Z,32.60
2018-03-25T21:42:36.344Z,31.60
2018-03-25T21:45:08.246Z,28.13
2018-03-25T21:47:36.547Z,36.03
2018-03-25T21:50:07.787Z,27.57
2018-03-25T21:52:36.353Z,27.63
2018-03-25T21:55:06.446Z,29.20
2018-03-25T21:57:34.746Z,32.07
2018-03-25T22:00:06.227Z,30.90
2018-03-25T22:02:34.542Z,33.03
2018-03-25T22:05:07.045Z,26.67
2018-03-25T22:07:35.354Z,28.73
2018-03-25T22:10:06.933Z,28.43
2018-03-25T22:12:35.261Z,28.10
2018-03-25T22:15:07.301Z,30.60
2018-03-25T22:17:35.642Z,30.07
2018-03-25T22:20:06.876Z,28.77
2018-03-25T22:22:35.174Z,28.70
2018-03-25T22:25:07.314Z,55.27
2018-03-25T22:27:35.594Z,47.53
2018-03-25T22:30:06.891Z,45.33
2018-03-25T22:32:36.072Z,37.30
2018-03-25T22:35:07.600Z,37.17
2018-03-25T22:37:35.874Z,38.53
2018-03-25T22:40:07.130Z,32.80
2018-03-25T22:42:35.424Z,34.23
2018-03-25T22:45:06.785Z,36.63
2018-03-25T22:47:35.100Z,38.43
2018-03-25T22:50:06.767Z,46.67
2018-03-25T22:52:35.061Z,29.93
2018-03-25T22:55:07.126Z,39.83
2018-03-25T22:57:35.422Z,47.80
2018-03-25T23:00:06.180Z,45.43
2018-03-25T23:02:34.517Z,43.80
2018-03-25T23:05:05.997Z,44.10
2018-03-25T23:07:34.282Z,43.73
2018-03-25T23:10:05.760Z,28.60
2018-03-25T23:12:34.114Z,35.67
2018-03-25T23:15:06.008Z,26.93
2018-03-25T23:17:34.285Z,32.33
2018-03-25T23:20:05.795Z,28.00
2018-03-25T23:22:34.104Z,31.50
2018-03-25T23:25:05.465Z,30.80
2018-03-25T23:27:33.785Z,27.87
2018-03-25T23:30:05.776Z,28.20
2018-03-25T23:32:34.125Z,28.77
2018-03-25T23:35:06.002Z,26.83
2018-03-25T23:37:34.304Z,28.03
2018-03-25T23:40:05.809Z,29.43
2018-03-25T23:42:34.114Z,29.57
2018-03-25T23:45:05.485Z,26.93
2018-03-25T23:47:33.812Z,29.60
2018-03-25T23:50:05.900Z,27.73
2018-03-25T23:52:34.234Z,27.10
2018-03-25T23:55:06.401Z,27.63
2018-03-25T23:57:35.119Z,27.87
